Time;durP1;ratioP1;P1;durP2;ratioP2;P2;SDS_P1;SDS_P2;PMS_P1;PMS_P2;Temp;Humidity;BMP_temperature;BMP_pressure;BME280_temperature;BME280_humidity;BME280_pressure;Samples;Min_cycle;Max_cycle;Signal;HPM_P1;HPM_P2
2020/12/24 00:00:57;;;;;;;7.35;4.80;;;11.10;99.90;;;;;;5054344;28;20032;-86
2020/12/24 00:03:23;;;;;;;9.73;5.18;;;11.00;99.90;;;;;;5054409;28;20773;-86
2020/12/24 00:05:48;;;;;;;6.72;4.35;;;11.10;99.90;;;;;;5050033;28;20056;-86
2020/12/24 00:08:14;;;;;;;7.97;4.93;;;11.10;99.90;;;;;;5049347;28;20129;-86
2020/12/24 00:10:39;;;;;;;6.28;4.40;;;11.10;99.90;;;;;;5049862;28;20017;-86
2020/12/24 00:13:05;;;;;;;7.47;4.18;;;11.10;99.90;;;;;;5051058;28;20036;-86
2020/12/24 00:15:30;;;;;;;5.72;3.85;;;11.20;99.90;;;;;;5049686;28;20025;-85
2020/12/24 00:17:56;;;;;;;5.72;4.18;;;11.20;99.90;;;;;;5057620;28;20410;-85
2020/12/24 00:20:21;;;;;;;6.40;4.00;;;11.20;99.90;;;;;;5049728;28;20048;-86
2020/12/24 00:22:47;;;;;;;5.43;3.95;;;11.20;99.90;;;;;;5055765;28;20115;-86
2020/12/24 00:25:12;;;;;;;5.38;4.05;;;11.20;99.90;;;;;;5062631;28;20059;-86
2020/12/24 00:27:38;;;;;;;6.47;3.90;;;11.30;99.90;;;;;;5048190;28;20050;-86
2020/12/24 00:30:04;;;;;;;5.30;3.65;;;11.30;99.90;;;;;;5050300;28;20028;-86
2020/12/24 00:32:30;;;;;;;6.38;3.83;;;11.30;99.90;;;;;;5046341;28;20360;-86
2020/12/24 00:34:55;;;;;;;5.10;3.67;;;11.30;99.90;;;;;;5062087;28;20028;-86
2020/12/24 00:37:21;;;;;;;7.35;4.18;;;11.30;99.90;;;;;;5046004;28;20033;-88
2020/12/24 00:39:46;;;;;;;6.28;4.00;;;11.30;99.90;;;;;;5057626;28;20060;-87
2020/12/24 00:42:12;;;;;;;5.57;3.88;;;11.30;99.90;;;;;;5062503;28;20036;-87
2020/12/24 00:44:37;;;;;;;7.22;4.05;;;11.30;99.90;;;;;;5067643;28;20102;-88
2020/12/24 00:47:03;;;;;;;5.32;3.95;;;11.30;99.90;;;;;;5069196;28;20024;-88
2020/12/24 00:49:28;;;;;;;6.05;3.47;;;11.30;99.90;;;;;;5066198;28;20382;-87
2020/12/24 00:51:54;;;;;;;5.65;3.63;;;11.30;99.90;;;;;;5062407;28;20025;-87
2020/12/24 00:54:19;;;;;;;5.80;3.95;;;11.30;99.90;;;;;;5067385;28;20052;-88
2020/12/24 00:56:45;;;;;;;4.82;3.47;;;11.30;99.90;;;;;;5063763;28;20103;-87
2020/12/24 00:59:10;;;;;;;4.97;3.70;;;11.30;99.90;;;;;;5063416;28;20036;-87
2020/12/24 01:01:36;;;;;;;4.55;3.33;;;11.30;99.90;;;;;;5062268;28;20029;-88
2020/12/24 01:04:01;;;;;;;5.60;3.78;;;11.20;99.90;;;;;;5067711;28;20029;-87
2020/12/24 01:06:27;;;;;;;6.32;3.28;;;11.30;99.90;;;;;;5067925;28;20540;-87
2020/12/24 01:08:52;;;;;;;5.45;3.25;;;11.20;99.90;;;;;;5066383;28;20103;-87
2020/12/24 01:11:18;;;;;;;3.97;3.05;;;11.20;99.90;;;;;;5055588;28;20020;-87
2020/12/24 01:13:43;;;;;;;6.15;2.55;;;11.20;99.90;;;;;;5060099;28;20463;-87
2020/12/24 01:16:09;;;;;;;4.50;3.05;;;11.20;99.90;;;;;;5061952;28;20357;-87
2020/12/24 01:18:34;;;;;;;6.65;2.88;;;11.20;99.90;;;;;;5051691;28;20125;-87
2020/12/24 01:21:00;;;;;;;4.30;2.80;;;11.10;99.90;;;;;;5066390;28;20029;-88
2020/12/24 01:23:25;;;;;;;3.45;2.88;;;11.10;99.90;;;;;;5059092;28;20036;-88
2020/12/24 01:25:51;;;;;;;4.90;3.03;;;11.10;99.90;;;;;;5068336;28;20021;-87
2020/12/24 01:28:16;;;;;;;4.18;2.97;;;11.10;99.90;;;;;;5062574;28;20399;-87
2020/12/24 01:30:42;;;;;;;3.65;2.78;;;11.10;99.90;;;;;;5058509;28;20052;-87
2020/12/24 01:33:07;;;;;;;4.05;2.30;;;11.10;99.90;;;;;;5060986;28;20024;-88
2020/12/24 01:35:33;;;;;;;3.53;2.42;;;11.10;99.90;;;;;;5048483;28;20075;-88
2020/12/24 01:37:58;;;;;;;3.28;2.40;;;11.10;99.90;;;;;;5052571;28;20020;-88
2020/12/24 01:40:24;;;;;;;2.10;1.90;;;11.10;99.90;;;;;;5066807;28;20027;-87
2020/12/24 01:42:49;;;;;;;2.13;1.83;;;11.10;99.90;;;;;;5068444;28;20364;-88
2020/12/24 01:45:15;;;;;;;3.80;2.53;;;11.10;99.90;;;;;;5062155;28;20467;-88
2020/12/24 01:47:40;;;;;;;2.55;1.73;;;11.00;99.90;;;;;;5067881;28;20033;-88
2020/12/24 01:50:06;;;;;;;2.88;1.48;;;11.00;99.90;;;;;;5066708;28;20056;-88
2020/12/24 01:52:39;;;;;;;1.95;1.52;;;10.90;99.90;;;;;;5070416;28;20740;-87
2020/12/24 01:55:11;;;;;;;1.80;1.58;;;10.90;99.90;;;;;;5062833;28;20483;-88
2020/12/24 01:57:38;;;;;;;2.17;1.60;;;10.80;99.90;;;;;;5065382;28;20090;-89
2020/12/24 02:00:09;;;;;;;3.22;1.83;;;10.80;99.90;;;;;;5063292;28;20025;-88
2020/12/24 02:02:34;;;;;;;1.45;1.30;;;10.80;99.90;;;;;;5053786;28;20029;-89
2020/12/24 02:05:00;;;;;;;1.42;1.27;;;10.80;99.90;;;;;;5058373;28;20090;-88
2020/12/24 02:07:26;;;;;;;1.77;1.40;;;10.80;99.90;;;;;;5054242;28;20028;-87
2020/12/24 02:09:51;;;;;;;1.77;1.23;;;10.80;99.90;;;;;;5054211;28;20029;-88
2020/12/24 02:12:19;;;;;;;1.48;1.38;;;10.70;99.90;;;;;;5066224;28;20063;-88
2020/12/24 02:14:45;;;;;;;3.35;1.45;;;10.70;99.90;;;;;;5072665;28;20025;-87
2020/12/24 02:17:11;;;;;;;2.08;1.13;;;10.70;99.90;;;;;;5061874;28;20075;-88
2020/12/24 02:19:37;;;;;;;2.33;1.20;;;10.70;99.90;;;;;;5066338;28;20051;-88
2020/12/24 02:22:03;;;;;;;4.78;1.40;;;10.70;99.90;;;;;;5073971;28;20032;-87
2020/12/24 02:24:29;;;;;;;1.50;1.33;;;10.70;99.90;;;;;;5072939;28;20048;-87
2020/12/24 02:26:55;;;;;;;1.50;1.30;;;10.60;99.90;;;;;;5067403;28;20063;-87
2020/12/24 02:29:21;;;;;;;2.00;1.30;;;10.60;99.90;;;;;;5073139;28;20024;-86
2020/12/24 02:31:47;;;;;;;1.38;1.27;;;10.60;99.90;;;;;;5072993;28;20024;-87
2020/12/24 02:34:13;;;;;;;1.60;1.48;;;10.60;99.90;;;;;;5071434;28;20027;-87
2020/12/24 02:36:38;;;;;;;2.10;1.52;;;10.60;99.90;;;;;;5065433;28;20548;-86
2020/12/24 02:39:04;;;;;;;1.50;1.38;;;10.60;99.90;;;;;;5066556;28;20028;-87
2020/12/24 02:41:30;;;;;;;0.98;0.98;;;10.60;99.90;;;;;;5072633;28;20522;-86
2020/12/24 02:43:56;;;;;;;2.17;1.45;;;10.60;99.90;;;;;;5066499;28;20387;-86
2020/12/24 02:46:21;;;;;;;3.63;1.30;;;10.70;99.90;;;;;;5067578;28;20056;-87
2020/12/24 02:48:46;;;;;;;2.30;1.48;;;10.80;99.90;;;;;;5064622;28;20025;-88
2020/12/24 02:51:13;;;;;;;1.60;1.35;;;10.80;99.90;;;;;;5067113;28;20474;-86
2020/12/24 02:53:39;;;;;;;1.15;1.05;;;10.80;99.90;;;;;;5071327;28;20031;-86
2020/12/24 02:56:04;;;;;;;3.05;1.17;;;10.80;99.90;;;;;;5073002;28;20471;-87
2020/12/24 02:58:30;;;;;;;1.63;1.25;;;10.90;99.90;;;;;;5059246;28;20128;-87
2020/12/24 03:00:55;;;;;;;4.13;1.50;;;10.80;99.90;;;;;;5063731;28;20024;-88
2020/12/24 03:03:24;;;;;;;1.58;1.40;;;10.80;99.90;;;;;;5073102;28;20029;-87
2020/12/24 03:05:50;;;;;;;2.72;1.33;;;10.80;99.90;;;;;;5060921;28;20052;-88
2020/12/24 03:08:15;;;;;;;1.95;1.55;;;10.80;99.90;;;;;;5051577;28;20501;-87
2020/12/24 03:10:40;;;;;;;5.65;2.38;;;10.90;99.90;;;;;;5062018;28;20029;-87
2020/12/24 03:13:06;;;;;;;2.85;1.60;;;10.90;99.90;;;;;;5069302;28;20048;-87
2020/12/24 03:15:31;;;;;;;2.33;1.52;;;10.90;99.90;;;;;;5064888;28;20025;-87
2020/12/24 03:17:57;;;;;;;2.60;1.50;;;10.90;99.90;;;;;;5051535;28;20060;-87
2020/12/24 03:20:22;;;;;;;1.25;1.10;;;10.90;99.90;;;;;;5052532;28;20033;-87
2020/12/24 03:22:48;;;;;;;1.73;1.50;;;10.90;99.90;;;;;;5067362;28;20477;-88
2020/12/24 03:25:13;;;;;;;2.00;1.50;;;10.90;99.90;;;;;;5068984;28;20028;-87
2020/12/24 03:27:39;;;;;;;1.98;1.75;;;10.90;99.90;;;;;;5069427;28;20181;-87
2020/12/24 03:30:06;;;;;;;1.35;1.25;;;10.90;99.90;;;;;;5068316;28;20024;-88
2020/12/24 03:32:31;;;;;;;1.63;1.52;;;10.90;99.90;;;;;;5069440;28;20021;-87
2020/12/24 03:34:57;;;;;;;1.70;1.20;;;10.90;99.90;;;;;;5056983;28;20479;-87
2020/12/24 03:37:22;;;;;;;2.22;1.40;;;10.90;99.90;;;;;;5049822;28;20031;-87
2020/12/24 03:39:47;;;;;;;1.30;1.20;;;10.90;99.90;;;;;;5063487;28;20797;-87
2020/12/24 03:42:13;;;;;;;2.83;1.50;;;10.90;99.90;;;;;;5069899;28;20069;-87
2020/12/24 03:44:38;;;;;;;2.35;1.33;;;11.00;99.90;;;;;;5067388;28;20056;-87
2020/12/24 03:47:04;;;;;;;1.40;1.30;;;10.90;99.90;;;;;;5069309;28;20033;-87
2020/12/24 03:49:31;;;;;;;2.47;1.30;;;10.90;99.90;;;;;;5065585;28;20025;-87
2020/12/24 03:51:56;;;;;;;1.30;1.20;;;11.00;99.90;;;;;;5049962;28;20025;-89
2020/12/24 03:54:22;;;;;;;1.83;1.10;;;10.90;99.90;;;;;;5054555;28;20121;-89
2020/12/24 03:56:47;;;;;;;1.60;1.10;;;10.70;99.90;;;;;;5051307;28;20037;-90
2020/12/24 03:59:13;;;;;;;1.85;1.23;;;10.60;99.90;;;;;;5056853;28;20028;-92
2020/12/24 04:01:38;;;;;;;3.03;1.38;;;10.50;99.90;;;;;;5064618;28;20040;-88
2020/12/24 04:04:04;;;;;;;2.42;1.40;;;10.40;99.90;;;;;;5052145;28;20021;-89
2020/12/24 04:06:29;;;;;;;3.55;1.60;;;10.40;99.90;;;;;;5065021;28;20039;-89
2020/12/24 04:08:55;;;;;;;2.13;1.40;;;10.40;99.90;;;;;;5067267;28;20044;-90
2020/12/24 04:11:20;;;;;;;1.52;1.30;;;10.30;99.90;;;;;;5051115;28;20047;-89
2020/12/24 04:13:46;;;;;;;3.13;1.35;;;10.40;99.90;;;;;;5048572;28;20809;-89
2020/12/24 04:16:11;;;;;;;1.60;1.10;;;10.40;99.90;;;;;;5053017;28;20029;-88
2020/12/24 04:18:38;;;;;;;2.00;1.15;;;10.40;99.90;;;;;;5059951;28;20053;-88
2020/12/24 04:21:03;;;;;;;3.95;1.60;;;10.40;99.90;;;;;;5058323;28;20036;-89
2020/12/24 04:23:29;;;;;;;3.00;1.38;;;10.40;99.90;;;;;;5059147;28;20031;-88
2020/12/24 04:25:54;;;;;;;2.55;1.20;;;10.40;99.90;;;;;;5054619;28;20025;-88
2020/12/24 04:28:20;;;;;;;2.33;1.20;;;10.40;99.90;;;;;;5067842;28;20058;-89
2020/12/24 04:30:45;;;;;;;3.60;1.30;;;10.40;99.90;;;;;;5050072;28;20028;-89
2020/12/24 04:33:12;;;;;;;4.55;1.48;;;10.40;99.90;;;;;;5061474;28;20025;-89
2020/12/24 04:35:37;;;;;;;2.20;1.35;;;10.40;99.90;;;;;;5068343;28;20482;-89
2020/12/24 04:38:04;;;;;;;2.28;1.20;;;10.40;99.90;;;;;;5054746;28;20025;-88
2020/12/24 04:40:29;;;;;;;1.60;1.50;;;10.30;99.90;;;;;;5058271;28;20032;-88
2020/12/24 04:42:56;;;;;;;2.40;1.20;;;10.30;99.90;;;;;;5062615;28;20037;-88
2020/12/24 04:45:23;;;;;;;1.70;1.30;;;10.20;99.90;;;;;;5068418;28;20024;-87
2020/12/24 04:47:55;;;;;;;1.88;1.33;;;10.20;99.90;;;;;;5057366;28;20029;-88
2020/12/24 04:50:24;;;;;;;2.13;1.30;;;10.10;99.90;;;;;;5049214;28;20055;-87
2020/12/24 04:52:50;;;;;;;4.18;1.40;;;10.10;99.90;;;;;;5065974;28;20028;-90
2020/12/24 04:55:15;;;;;;;2.53;1.45;;;10.20;99.90;;;;;;5068794;28;20028;-87
2020/12/24 04:57:43;;;;;;;2.00;1.15;;;10.10;99.90;;;;;;5061913;28;20395;-89
2020/12/24 05:00:09;;;;;;;4.15;1.30;;;10.10;99.90;;;;;;5048804;28;20033;-88
2020/12/24 05:02:34;;;;;;;1.20;1.10;;;10.00;99.90;;;;;;5062547;28;20483;-89
2020/12/24 05:05:03;;;;;;;2.50;1.20;;;10.00;99.90;;;;;;5066864;28;20097;-89
2020/12/24 05:07:29;;;;;;;1.15;1.00;;;10.00;99.90;;;;;;5066342;28;20025;-89
2020/12/24 05:09:54;;;;;;;5.13;1.50;;;10.00;99.90;;;;;;5057977;28;20028;-88
2020/12/24 05:12:30;;;;;;;4.53;1.20;;;10.00;99.90;;;;;;5050029;28;20028;-88
2020/12/24 05:14:56;;;;;;;2.30;1.02;;;10.10;99.90;;;;;;5068005;28;20574;-90
2020/12/24 05:17:23;;;;;;;5.38;0.90;;;10.10;99.90;;;;;;5058399;28;20120;-88
2020/12/24 05:20:05;;;;;;;1.48;0.80;;;10.20;99.90;;;;;;5047557;28;20135;-89
2020/12/24 05:22:31;;;;;;;2.92;1.02;;;10.20;99.90;;;;;;5050021;28;20737;-87
2020/12/24 05:25:10;;;;;;;3.88;0.90;;;10.20;99.90;;;;;;5067927;28;20032;-88
2020/12/24 05:27:36;;;;;;;2.05;1.00;;;10.30;99.90;;;;;;5064401;28;20037;-87
2020/12/24 05:30:02;;;;;;;3.10;1.10;;;10.30;99.90;;;;;;5067842;28;20028;-88
2020/12/24 05:32:30;;;;;;;2.33;1.30;;;10.30;99.90;;;;;;5065718;28;20040;-88
2020/12/24 05:35:10;;;;;;;2.28;0.90;;;10.30;99.90;;;;;;5046385;28;20500;-90
2020/12/24 05:37:35;;;;;;;5.68;1.33;;;10.30;99.90;;;;;;5060516;28;20054;-89
2020/12/24 05:40:24;;;;;;;4.18;1.40;;;10.30;99.90;;;;;;5068053;28;20458;-89
2020/12/24 05:42:53;;;;;;;2.33;1.58;;;10.30;99.90;;;;;;5058250;28;20032;-88
2020/12/24 05:45:20;;;;;;;2.45;1.15;;;10.30;99.90;;;;;;5047912;28;20487;-87
2020/12/24 05:47:46;;;;;;;3.78;1.20;;;10.30;99.90;;;;;;5055674;28;20394;-89
2020/12/24 05:50:22;;;;;;;3.50;1.33;;;10.30;99.90;;;;;;5065985;28;20021;-88
2020/12/24 05:53:10;;;;;;;2.13;1.30;;;10.30;99.90;;;;;;5066649;28;20033;-88
2020/12/24 05:55:37;;;;;;;2.90;1.00;;;10.30;99.90;;;;;;5068234;28;20028;-89
2020/12/24 05:58:04;;;;;;;6.97;1.20;;;10.30;99.90;;;;;;5054896;28;20028;-90
2020/12/24 06:00:41;;;;;;;4.85;1.63;;;10.30;99.90;;;;;;5065402;28;20029;-88
2020/12/24 06:03:17;;;;;;;7.35;1.13;;;10.30;99.90;;;;;;5066640;28;20036;-90
2020/12/24 06:06:04;;;;;;;6.72;1.27;;;10.20;99.90;;;;;;5067599;28;20035;-89
2020/12/24 06:08:32;;;;;;;3.60;1.33;;;10.20;99.90;;;;;;5054434;28;20028;-88
2020/12/24 06:11:08;;;;;;;4.30;1.20;;;10.20;99.90;;;;;;5047315;28;20604;-87
2020/12/24 06:13:42;;;;;;;4.07;1.30;;;10.20;99.90;;;;;;5066948;28;20107;-87
2020/12/24 06:16:12;;;;;;;3.80;1.10;;;10.20;99.90;;;;;;5063303;28;20021;-88
2020/12/24 06:18:43;;;;;;;2.78;1.02;;;10.10;99.90;;;;;;5046856;28;20073;-87
2020/12/24 06:21:19;;;;;;;5.15;1.20;;;10.10;99.90;;;;;;5047145;28;20065;-89
2020/12/24 06:24:06;;;;;;;4.18;1.15;;;10.10;99.90;;;;;;5047459;28;20124;-90
2020/12/24 06:26:37;;;;;;;7.80;1.55;;;10.00;99.90;;;;;;5050597;28;20032;-88
2020/12/24 06:29:03;;;;;;;4.35;1.35;;;10.00;99.90;;;;;;5064941;28;20021;-87
2020/12/24 06:31:32;;;;;;;5.60;0.95;;;9.90;99.90;;;;;;5061724;28;20047;-88
2020/12/24 06:33:57;;;;;;;2.45;1.08;;;9.90;99.90;;;;;;5049967;28;20032;-77
2020/12/24 06:36:34;;;;;;;2.80;1.10;;;9.80;99.90;;;;;;5066787;28;20021;-77
2020/12/24 06:39:00;;;;;;;4.10;1.42;;;9.80;99.90;;;;;;5064436;28;20032;-77
2020/12/24 06:41:41;;;;;;;3.17;1.10;;;9.80;99.90;;;;;;5055499;28;20379;-77
2020/12/24 06:44:10;;;;;;;3.22;1.10;;;9.70;99.90;;;;;;5054251;28;20020;-77
2020/12/24 06:46:55;;;;;;;3.97;1.30;;;9.70;99.90;;;;;;5050851;28;20078;-78
2020/12/24 06:49:31;;;;;;;4.93;1.00;;;9.60;99.90;;;;;;5058909;28;20021;-77
2020/12/24 06:51:57;;;;;;;4.65;0.95;;;9.60;99.90;;;;;;5060685;28;20034;-77
2020/12/24 06:54:25;;;;;;;4.47;0.98;;;9.50;99.90;;;;;;5066077;28;20100;-77
2020/12/24 06:57:23;;;;;;;6.22;1.90;;;9.50;99.90;;;;;;5051559;28;20129;-77
2020/12/24 07:00:23;;;;;;;3.95;1.13;;;9.50;99.90;;;;;;5058271;28;20479;-77
2020/12/24 07:02:50;;;;;;;5.80;1.10;;;9.50;99.90;;;;;;5055110;28;20153;-77
2020/12/24 07:05:41;;;;;;;6.47;1.33;;;9.50;99.90;;;;;;5065323;28;20031;-77
2020/12/24 07:08:07;;;;;;;4.05;1.27;;;9.50;99.90;;;;;;5066942;28;20032;-77
2020/12/24 07:10:43;;;;;;;5.65;1.30;;;9.40;99.90;;;;;;5055445;28;20386;-77
2020/12/24 07:13:09;;;;;;;7.20;1.13;;;9.40;99.90;;;;;;5061813;28;20040;-77
2020/12/24 07:15:43;;;;;;;4.85;1.48;;;9.40;99.90;;;;;;5065200;28;20033;-77
2020/12/24 07:18:12;;;;;;;6.35;1.33;;;9.40;99.90;;;;;;5054405;28;20025;-77
2020/12/24 07:20:38;;;;;;;6.50;1.05;;;9.40;99.90;;;;;;5054476;28;20627;-77
2020/12/24 07:23:05;;;;;;;2.90;0.90;;;9.30;99.90;;;;;;5059213;28;20047;-77
2020/12/24 07:25:35;;;;;;;2.22;0.77;;;9.30;99.90;;;;;;5057947;28;20029;-77
2020/12/24 07:28:01;;;;;;;8.25;1.40;;;9.30;99.90;;;;;;5055783;28;20036;-77
2020/12/24 07:30:27;;;;;;;7.32;1.10;;;9.30;99.90;;;;;;5059030;28;20028;-77
2020/12/24 07:32:57;;;;;;;2.13;1.10;;;9.30;99.90;;;;;;5054157;28;20104;-77
2020/12/24 07:35:22;;;;;;;3.92;1.08;;;9.30;99.90;;;;;;5065745;28;20032;-77
2020/12/24 07:37:49;;;;;;;4.75;1.20;;;9.30;99.90;;;;;;5064049;28;20036;-77
2020/12/24 07:40:15;;;;;;;7.22;1.20;;;9.30;99.90;;;;;;5058899;28;20036;-78
2020/12/24 07:42:41;;;;;;;8.63;1.45;;;9.20;99.90;;;;;;5053277;28;20028;-80
2020/12/24 07:45:06;;;;;;;1.83;0.65;;;9.30;99.90;;;;;;5060715;28;20025;-81
2020/12/24 07:47:32;;;;;;;6.53;1.13;;;9.20;99.90;;;;;;5058740;28;20036;-77
2020/12/24 07:49:57;;;;;;;3.15;0.88;;;9.20;99.90;;;;;;5068509;28;20104;-73
2020/12/24 07:52:27;;;;;;;7.47;1.50;;;9.20;99.90;;;;;;5066690;28;20021;-86
2020/12/24 07:54:52;;;;;;;3.47;1.00;;;9.20;99.90;;;;;;5052061;28;20040;-78
2020/12/24 07:57:22;;;;;;;1.98;0.80;;;9.20;99.90;;;;;;5059357;28;20032;-77
2020/12/24 08:00:00;;;;;;;2.95;1.02;;;9.20;99.90;;;;;;5052544;28;20024;-76
2020/12/24 08:02:26;;;;;;;2.92;1.10;;;9.30;99.90;;;;;;5057364;28;20036;-77
2020/12/24 08:04:55;;;;;;;6.28;1.02;;;9.30;99.90;;;;;;5052029;28;20120;-76
2020/12/24 08:07:20;;;;;;;3.95;1.20;;;9.30;99.90;;;;;;5057327;28;20029;-77
2020/12/24 08:09:46;;;;;;;1.77;1.23;;;9.30;99.90;;;;;;5067871;28;20066;-79
2020/12/24 08:12:20;;;;;;;3.53;1.00;;;9.30;99.90;;;;;;5067569;28;20036;-78
2020/12/24 08:14:45;;;;;;;4.90;1.00;;;9.30;99.90;;;;;;5060391;28;20050;-79
2020/12/24 08:17:25;;;;;;;4.05;1.00;;;9.30;99.90;;;;;;5056414;28;20122;-79
2020/12/24 08:20:07;;;;;;;7.82;1.23;;;9.30;99.90;;;;;;5065450;28;20048;-78
2020/12/24 08:22:44;;;;;;;4.68;1.20;;;9.30;99.90;;;;;;5061195;28;20116;-78
2020/12/24 08:25:11;;;;;;;3.33;0.88;;;9.30;99.90;;;;;;5064838;28;20031;-79
2020/12/24 08:27:37;;;;;;;6.93;1.27;;;9.30;99.90;;;;;;5069479;28;20039;-80
2020/12/24 08:30:06;;;;;;;2.17;0.90;;;9.30;99.90;;;;;;5060628;28;20021;-84
2020/12/24 08:32:32;;;;;;;2.10;1.00;;;9.30;99.90;;;;;;5054305;28;20083;-81
2020/12/24 08:35:11;;;;;;;4.03;0.93;;;9.30;99.90;;;;;;5049929;28;20427;-81
2020/12/24 08:37:37;;;;;;;3.55;0.88;;;9.30;99.90;;;;;;5063200;28;20275;-78
2020/12/24 08:40:22;;;;;;;3.70;0.88;;;9.30;99.90;;;;;;5061750;28;20086;-75
2020/12/24 08:42:51;;;;;;;4.35;1.05;;;9.20;99.90;;;;;;5063205;28;20052;-76
2020/12/24 08:45:16;;;;;;;4.88;1.13;;;9.20;99.90;;;;;;5064284;28;20024;-75
2020/12/24 08:47:42;;;;;;;2.85;0.80;;;9.10;99.90;;;;;;5060333;28;20032;-77
2020/12/24 08:50:07;;;;;;;6.10;1.00;;;9.10;99.90;;;;;;5057089;28;20511;-78
2020/12/24 08:52:38;;;;;;;6.72;1.20;;;9.10;99.90;;;;;;5051146;28;20021;-77
2020/12/24 08:55:10;;;;;;;4.80;1.13;;;9.00;99.90;;;;;;5058371;28;20029;-80
2020/12/24 08:57:37;;;;;;;2.55;1.10;;;9.10;99.90;;;;;;5049734;28;20114;-78
2020/12/24 09:00:12;;;;;;;5.75;1.13;;;9.10;99.90;;;;;;5055322;28;20112;-76
2020/12/24 09:02:39;;;;;;;6.32;1.15;;;9.20;99.90;;;;;;5051944;28;20064;-77
2020/12/24 09:05:06;;;;;;;3.08;1.05;;;9.10;99.90;;;;;;5061131;28;20040;-77
2020/12/24 09:07:35;;;;;;;3.70;1.00;;;9.20;99.90;;;;;;5054158;28;20029;-75
2020/12/24 09:10:12;;;;;;;8.48;1.38;;;9.20;99.90;;;;;;5051186;28;20035;-78
2020/12/24 09:12:40;;;;;;;3.78;0.77;;;9.30;99.90;;;;;;5057861;28;20086;-80
2020/12/24 09:15:14;;;;;;;5.47;1.65;;;9.40;99.90;;;;;;5050601;28;20021;-76
2020/12/24 09:17:55;;;;;;;2.65;1.00;;;9.50;99.90;;;;;;5056535;28;20107;-76
2020/12/24 09:20:26;;;;;;;4.07;1.00;;;9.60;99.90;;;;;;5051647;28;20113;-78
2020/12/24 09:22:59;;;;;;;4.00;0.90;;;9.60;99.90;;;;;;5061100;28;20491;-87
2020/12/24 09:25:43;;;;;;;2.25;0.63;;;9.50;99.90;;;;;;5051798;28;20036;-87
2020/12/24 09:28:26;;;;;;;1.20;0.82;;;9.50;99.90;;;;;;5061705;28;20029;-82
2020/12/24 09:30:57;;;;;;;7.50;2.58;;;9.60;99.90;;;;;;5059818;28;20032;-82
2020/12/24 09:33:23;;;;;;;8.02;3.00;;;9.60;99.90;;;;;;5067857;28;20510;-81
2020/12/24 09:35:49;;;;;;;7.57;1.25;;;9.60;99.90;;;;;;5056624;28;20033;-79
2020/12/24 09:38:14;;;;;;;4.03;2.30;;;9.50;99.90;;;;;;5062090;28;20036;-79
2020/12/24 09:40:40;;;;;;;6.07;1.48;;;9.50;99.90;;;;;;5066427;28;20032;-79
2020/12/24 09:43:06;;;;;;;5.85;1.27;;;9.40;99.90;;;;;;5066985;28;20031;-81
2020/12/24 09:45:33;;;;;;;4.68;1.27;;;9.30;99.90;;;;;;5067236;28;20029;-81
2020/12/24 09:47:59;;;;;;;5.47;1.35;;;9.40;99.90;;;;;;5066513;28;20098;-81
2020/12/24 09:50:24;;;;;;;6.47;1.80;;;9.50;99.90;;;;;;5048759;28;20556;-80
2020/12/24 09:52:50;;;;;;;6.53;1.83;;;9.40;99.90;;;;;;5049018;28;20371;-78
2020/12/24 09:55:16;;;;;;;7.00;2.70;;;9.50;99.90;;;;;;5064231;28;20075;-78
2020/12/24 09:57:41;;;;;;;4.60;1.38;;;9.50;99.90;;;;;;5060707;28;20028;-79
2020/12/24 10:00:09;;;;;;;7.30;1.70;;;9.50;99.90;;;;;;5051726;28;20016;-80
2020/12/24 10:02:35;;;;;;;6.63;1.00;;;9.50;99.90;;;;;;5051289;28;20492;-79
2020/12/24 10:05:01;;;;;;;6.63;2.22;;;9.50;99.90;;;;;;5047716;28;20056;-76
2020/12/24 10:07:27;;;;;;;7.03;1.35;;;9.50;99.90;;;;;;5066577;28;20496;-79
2020/12/24 10:09:55;;;;;;;8.32;2.00;;;9.40;99.90;;;;;;5054088;28;20032;-79
2020/12/24 10:12:22;;;;;;;4.07;1.33;;;9.50;99.90;;;;;;5060409;28;20742;-79
2020/12/24 10:14:48;;;;;;;3.10;1.15;;;9.40;99.90;;;;;;5057545;28;20475;-79
2020/12/24 10:17:15;;;;;;;8.20;1.98;;;9.50;99.90;;;;;;5058640;28;20071;-75
2020/12/24 10:19:43;;;;;;;6.13;1.30;;;9.50;99.90;;;;;;5051581;28;20044;-79
2020/12/24 10:22:09;;;;;;;4.95;1.40;;;9.50;99.90;;;;;;5055450;28;20549;-78
2020/12/24 10:24:35;;;;;;;8.15;1.50;;;9.50;99.90;;;;;;5060162;28;20064;-75
2020/12/24 10:27:00;;;;;;;3.95;1.17;;;9.50;99.90;;;;;;5065671;28;20060;-77
2020/12/24 10:29:26;;;;;;;7.00;1.15;;;9.60;99.90;;;;;;5061582;28;20025;-80
2020/12/24 10:31:52;;;;;;;3.22;0.85;;;9.60;99.90;;;;;;5058926;28;20017;-80
2020/12/24 10:34:17;;;;;;;4.90;1.23;;;9.50;99.90;;;;;;5069679;28;20025;-80
2020/12/24 10:36:42;;;;;;;6.13;1.58;;;9.60;99.90;;;;;;5069609;28;20016;-80
2020/12/24 10:39:09;;;;;;;11.70;2.05;;;9.50;99.90;;;;;;5071239;28;20474;-80
2020/12/24 10:41:36;;;;;;;2.80;1.05;;;9.50;99.90;;;;;;5069337;28;20056;-80
2020/12/24 10:44:02;;;;;;;5.47;1.13;;;9.50;99.90;;;;;;5069838;28;20882;-80
2020/12/24 10:46:28;;;;;;;6.93;1.10;;;9.50;99.90;;;;;;5071417;28;20367;-80
2020/12/24 10:48:53;;;;;;;5.68;2.00;;;9.40;99.90;;;;;;5070649;28;20107;-80
2020/12/24 10:51:19;;;;;;;5.60;1.15;;;9.30;99.90;;;;;;5071205;28;20112;-80
2020/12/24 10:53:45;;;;;;;4.32;1.10;;;9.40;99.90;;;;;;5065947;28;20040;-80
2020/12/24 10:56:12;;;;;;;4.13;1.00;;;9.30;99.90;;;;;;5050815;28;20025;-80
2020/12/24 10:58:40;;;;;;;3.33;0.93;;;9.30;99.90;;;;;;5050919;28;20129;-80
2020/12/24 11:01:11;;;;;;;4.40;0.90;;;9.30;99.90;;;;;;5057448;28;20031;-80
2020/12/24 11:03:38;;;;;;;6.10;1.23;;;9.10;99.90;;;;;;5068237;28;20123;-81
2020/12/24 11:06:07;;;;;;;5.57;1.20;;;8.90;99.90;;;;;;5069815;28;20032;-79
2020/12/24 11:08:34;;;;;;;2.85;1.20;;;8.80;99.90;;;;;;5064998;28;20501;-80
2020/12/24 11:11:00;;;;;;;3.65;1.23;;;8.80;99.90;;;;;;5059736;28;20032;-80
2020/12/24 11:13:26;;;;;;;5.68;1.15;;;8.90;99.90;;;;;;5055620;28;20030;-79
2020/12/24 11:15:52;;;;;;;3.33;0.98;;;8.80;99.90;;;;;;5050979;28;20028;-80
2020/12/24 11:18:18;;;;;;;6.30;1.35;;;8.70;99.90;;;;;;5058478;28;20025;-75
2020/12/24 11:20:43;;;;;;;3.47;1.15;;;8.70;99.90;;;;;;5057168;28;20031;-80
2020/12/24 11:23:09;;;;;;;3.60;0.77;;;8.60;99.90;;;;;;5059310;28;20033;-80
2020/12/24 11:25:35;;;;;;;2.03;0.85;;;8.50;99.90;;;;;;5058808;28;20551;-80
2020/12/24 11:28:01;;;;;;;3.03;0.75;;;8.60;99.90;;;;;;5061825;28;20170;-81
2020/12/24 11:30:27;;;;;;;1.17;0.75;;;8.50;99.90;;;;;;5050461;28;20032;-80
2020/12/24 11:32:52;;;;;;;1.70;0.70;;;8.40;99.90;;;;;;5061241;28;20386;-84
2020/12/24 11:35:18;;;;;;;1.52;1.17;;;8.40;99.90;;;;;;5051473;28;20032;-81
2020/12/24 11:37:43;;;;;;;1.45;0.80;;;8.40;99.90;;;;;;5063143;28;20029;-82
2020/12/24 11:40:08;;;;;;;1.42;0.60;;;8.30;99.90;;;;;;5070284;28;20028;-82
2020/12/24 11:42:34;;;;;;;1.00;0.70;;;8.20;99.90;;;;;;5061021;28;20425;-79
2020/12/24 11:45:00;;;;;;;0.93;0.60;;;8.20;99.90;;;;;;5065077;28;20029;-82
2020/12/24 11:47:25;;;;;;;0.55;0.55;;;8.20;99.90;;;;;;5065333;28;20028;-82
2020/12/24 11:49:51;;;;;;;1.98;0.80;;;8.30;99.90;;;;;;5057986;28;20012;-81
2020/12/24 11:52:16;;;;;;;1.02;0.63;;;8.20;99.90;;;;;;5068344;28;20033;-86
2020/12/24 11:54:42;;;;;;;0.70;0.70;;;8.20;99.90;;;;;;5064863;28;20013;-83
2020/12/24 11:57:08;;;;;;;0.65;0.65;;;8.10;99.90;;;;;;5067907;28;20025;-84
2020/12/24 11:59:33;;;;;;;0.60;0.60;;;8.10;99.90;;;;;;5056840;28;20037;-91
2020/12/24 12:01:59;;;;;;;0.70;0.50;;;7.90;99.90;;;;;;5049808;28;20029;-79
2020/12/24 12:04:24;;;;;;;2.20;0.45;;;7.90;99.90;;;;;;5069363;28;20024;-81
2020/12/24 12:06:50;;;;;;;0.73;0.50;;;7.80;99.90;;;;;;5069472;28;20058;-81
2020/12/24 12:09:16;;;;;;;1.25;0.63;;;7.90;99.90;;;;;;5066767;28;20020;-80
2020/12/24 12:11:42;;;;;;;0.40;0.40;;;7.80;99.90;;;;;;5068696;28;20035;-79
2020/12/24 12:14:07;;;;;;;1.45;0.80;;;7.80;99.90;;;;;;5065421;28;20028;-80
2020/12/24 12:16:33;;;;;;;0.65;0.63;;;7.80;99.90;;;;;;5062448;28;20630;-79
2020/12/24 12:18:58;;;;;;;0.50;0.40;;;7.80;99.90;;;;;;5056348;28;20044;-84
2020/12/24 12:21:23;;;;;;;1.13;0.38;;;7.90;99.90;;;;;;5052926;28;20025;-80
2020/12/24 12:23:49;;;;;;;0.40;0.40;;;7.80;99.90;;;;;;5062735;28;20032;-83
2020/12/24 12:26:15;;;;;;;1.60;0.90;;;7.80;99.90;;;;;;5062497;28;20024;-89
2020/12/24 12:28:46;;;;;;;1.58;1.20;;;7.80;99.90;;;;;;5061741;28;20037;-83
2020/12/24 12:31:23;;;;;;;1.10;0.85;;;7.70;99.90;;;;;;5049654;28;20035;-83
2020/12/24 12:33:50;;;;;;;1.20;0.98;;;7.60;99.90;;;;;;5054105;28;20088;-79
2020/12/24 12:36:18;;;;;;;0.50;0.30;;;7.50;99.90;;;;;;5057397;28;20029;-84
2020/12/24 12:38:45;;;;;;;1.67;0.90;;;7.50;99.90;;;;;;5058736;28;20024;-81
2020/12/24 12:41:18;;;;;;;0.40;0.40;;;7.40;99.90;;;;;;5067340;28;20117;-80
2020/12/24 12:43:44;;;;;;;0.50;0.50;;;7.20;99.90;;;;;;5068809;28;20040;-87
2020/12/24 12:46:10;;;;;;;0.40;0.40;;;7.20;99.90;;;;;;5065356;28;20102;-81
2020/12/24 12:48:36;;;;;;;0.47;0.30;;;7.10;99.90;;;;;;5061435;28;20386;-85
2020/12/24 12:51:02;;;;;;;0.25;0.25;;;7.00;99.90;;;;;;5060927;28;20029;-85
2020/12/24 12:53:28;;;;;;;0.30;0.30;;;6.90;99.90;;;;;;5058969;28;20074;-86
2020/12/24 12:55:53;;;;;;;0.25;0.25;;;6.90;99.90;;;;;;5052959;28;20021;-80